Time;durP1;ratioP1;P1;durP2;ratioP2;P2;SDS_P1;SDS_P2;PMS_P1;PMS_P2;Temp;Humidity;BMP_temperature;BMP_pressure;BME280_temperature;BME280_humidity;BME280_pressure;Samples;Min_cycle;Max_cycle;Signal;HPM_P1;HPM_P2
2024/01/27 00:00:32;;;;;;;9.93;3.00;;;22.60;99.90;;;;;;4975134;28;20183;-72
2024/01/27 00:02:59;;;;;;;10.97;3.30;;;22.60;99.90;;;;;;4975697;28;20543;-72
2024/01/27 00:05:27;;;;;;;10.77;3.10;;;22.70;99.90;;;;;;4975535;28;20264;-72
2024/01/27 00:07:55;;;;;;;11.27;2.80;;;22.70;99.90;;;;;;4975255;28;20179;-72
2024/01/27 00:10:22;;;;;;;8.80;2.90;;;22.70;99.90;;;;;;4975220;28;20203;-72
2024/01/27 00:12:49;;;;;;;8.47;2.60;;;22.70;99.90;;;;;;4975022;28;20214;-72
2024/01/27 00:15:17;;;;;;;11.97;3.03;;;22.70;99.90;;;;;;4973232;28;20187;-72
2024/01/27 00:17:44;;;;;;;9.77;3.20;;;22.70;99.90;;;;;;4963555;28;20200;-73
2024/01/27 00:20:12;;;;;;;8.07;2.63;;;22.70;99.90;;;;;;4955875;28;20188;-72
2024/01/27 00:22:39;;;;;;;9.27;2.73;;;22.70;99.90;;;;;;4943942;28;21089;-72
2024/01/27 00:25:07;;;;;;;10.03;2.87;;;22.60;99.90;;;;;;4953395;29;20192;-73
2024/01/27 00:27:34;;;;;;;11.37;3.10;;;22.60;99.90;;;;;;4953952;28;20192;-74
2024/01/27 00:30:02;;;;;;;9.90;2.80;;;22.50;99.90;;;;;;4953459;28;20787;-72
2024/01/27 00:32:29;;;;;;;11.03;2.70;;;22.60;99.90;;;;;;4961215;28;20239;-72
2024/01/27 00:34:56;;;;;;;14.17;3.43;;;22.70;99.90;;;;;;4962712;28;20198;-73
2024/01/27 00:37:23;;;;;;;9.63;2.43;;;22.80;99.90;;;;;;4962671;28;20348;-72
2024/01/27 00:39:51;;;;;;;8.70;2.93;;;22.80;99.90;;;;;;4970078;28;20186;-72
2024/01/27 00:42:23;;;;;;;8.27;2.80;;;22.80;99.90;;;;;;4972974;28;20233;-72
2024/01/27 00:44:51;;;;;;;19.07;3.23;;;22.80;99.90;;;;;;4971455;28;20295;-73
2024/01/27 00:47:18;;;;;;;11.90;2.87;;;22.50;99.90;;;;;;4973015;28;20184;-72
2024/01/27 00:49:46;;;;;;;14.87;3.20;;;22.20;99.90;;;;;;4959473;28;20188;-73
2024/01/27 00:52:13;;;;;;;17.30;2.83;;;22.10;99.90;;;;;;4971330;28;20179;-73
2024/01/27 00:54:40;;;;;;;12.33;3.23;;;22.00;99.90;;;;;;4963753;28;20219;-73
2024/01/27 00:57:08;;;;;;;10.43;3.30;;;22.00;99.90;;;;;;4953557;28;20184;-73
2024/01/27 00:59:35;;;;;;;8.97;3.00;;;21.90;99.90;;;;;;4953049;28;20180;-73
2024/01/27 01:02:02;;;;;;;12.43;3.03;;;21.80;99.90;;;;;;4953295;28;20180;-72
2024/01/27 01:04:30;;;;;;;9.37;2.60;;;21.70;99.90;;;;;;4953480;28;20197;-73
2024/01/27 01:06:57;;;;;;;7.53;2.33;;;21.70;99.90;;;;;;4962849;28;20630;-73
2024/01/27 01:09:25;;;;;;;10.50;2.60;;;21.70;99.90;;;;;;4970090;28;20192;-73
2024/01/27 01:11:52;;;;;;;8.37;2.23;;;21.70;99.90;;;;;;4961612;28;20223;-73
2024/01/27 01:14:19;;;;;;;8.20;2.50;;;21.80;99.90;;;;;;4952831;28;20218;-73
2024/01/27 01:16:47;;;;;;;13.37;3.07;;;21.90;99.90;;;;;;4958474;28;20904;-73
2024/01/27 01:19:14;;;;;;;6.63;2.50;;;21.70;99.90;;;;;;4962146;28;20238;-74
2024/01/27 01:21:41;;;;;;;12.47;2.43;;;21.70;99.90;;;;;;4962394;28;20229;-74
2024/01/27 01:24:09;;;;;;;6.50;2.20;;;21.80;99.90;;;;;;4972674;28;20178;-74
2024/01/27 01:26:36;;;;;;;10.87;2.60;;;21.90;99.90;;;;;;4972491;28;20221;-74
2024/01/27 01:29:03;;;;;;;8.07;2.00;;;21.80;99.90;;;;;;4960822;28;20196;-73
2024/01/27 01:31:30;;;;;;;9.40;2.33;;;21.80;99.90;;;;;;4968233;28;20269;-74
2024/01/27 01:33:58;;;;;;;10.53;3.20;;;21.80;99.90;;;;;;4953175;28;20218;-73
2024/01/27 01:36:26;;;;;;;11.00;2.90;;;21.90;99.90;;;;;;4956379;28;20238;-75
2024/01/27 01:38:53;;;;;;;12.67;3.37;;;22.10;99.90;;;;;;4953007;28;20651;-74
2024/01/27 01:41:20;;;;;;;11.13;2.90;;;22.20;99.90;;;;;;4953144;28;20218;-75
2024/01/27 01:43:47;;;;;;;10.50;3.13;;;22.30;99.90;;;;;;4956335;28;20176;-73
2024/01/27 01:46:15;;;;;;;14.07;2.80;;;22.30;99.90;;;;;;4972114;28;20191;-74
2024/01/27 01:48:42;;;;;;;12.27;2.80;;;22.40;99.90;;;;;;4972421;28;20183;-74
2024/01/27 01:51:10;;;;;;;9.30;2.53;;;22.30;99.90;;;;;;4970261;28;20180;-75
2024/01/27 01:53:38;;;;;;;8.60;2.57;;;22.30;99.90;;;;;;4972045;28;20233;-74
2024/01/27 01:56:06;;;;;;;8.03;2.80;;;22.30;99.90;;;;;;4969381;28;20194;-74
2024/01/27 01:58:34;;;;;;;8.13;2.37;;;22.40;99.90;;;;;;4968496;28;20307;-74
2024/01/27 02:01:02;;;;;;;8.83;2.70;;;22.50;99.90;;;;;;4954197;28;20548;-75
2024/01/27 02:03:29;;;;;;;9.23;2.27;;;22.70;99.90;;;;;;4974080;28;20233;-73
2024/01/27 02:05:56;;;;;;;9.87;2.73;;;22.80;99.90;;;;;;4975644;28;20539;-74
2024/01/27 02:08:24;;;;;;;10.37;3.37;;;23.00;99.90;;;;;;4974230;28;20191;-74
2024/01/27 02:10:51;;;;;;;13.90;3.03;;;23.10;99.90;;;;;;4975326;28;20176;-74
2024/01/27 02:13:21;;;;;;;12.27;2.63;;;23.10;99.90;;;;;;4968288;28;20226;-74
2024/01/27 02:15:51;;;;;;;8.80;2.57;;;23.10;99.90;;;;;;4966580;28;20172;-74
2024/01/27 02:18:18;;;;;;;9.93;2.73;;;23.10;99.90;;;;;;4975626;28;20179;-74
2024/01/27 02:20:46;;;;;;;8.83;2.50;;;23.00;99.90;;;;;;4975485;28;20738;-73
2024/01/27 02:23:13;;;;;;;11.87;2.60;;;23.00;99.90;;;;;;4975580;28;20190;-74
2024/01/27 02:25:40;;;;;;;10.13;2.30;;;23.10;99.90;;;;;;4977151;28;20179;-74
2024/01/27 02:28:08;;;;;;;10.20;2.47;;;23.00;99.90;;;;;;4962756;28;20647;-73
2024/01/27 02:30:35;;;;;;;9.27;3.00;;;22.90;99.90;;;;;;4957643;28;20213;-74
2024/01/27 02:33:02;;;;;;;12.37;3.03;;;22.80;99.90;;;;;;4957608;28;20204;-74
2024/01/27 02:35:30;;;;;;;8.37;2.37;;;22.60;99.90;;;;;;4975715;28;20215;-74
2024/01/27 02:37:57;;;;;;;8.77;2.67;;;22.60;99.90;;;;;;4975879;28;20183;-73
2024/01/27 02:40:24;;;;;;;7.57;2.10;;;22.60;99.90;;;;;;4963139;28;20672;-73
2024/01/27 02:42:52;;;;;;;6.20;2.10;;;22.60;99.90;;;;;;4955611;28;20654;-73
2024/01/27 02:45:19;;;;;;;9.00;2.50;;;22.50;99.90;;;;;;4957503;28;20207;-74
2024/01/27 02:47:47;;;;;;;9.17;2.57;;;22.50;99.90;;;;;;4957495;29;20203;-75
2024/01/27 02:50:14;;;;;;;11.03;2.43;;;22.60;99.90;;;;;;4957179;28;20270;-74
2024/01/27 02:52:41;;;;;;;9.97;2.53;;;22.70;99.90;;;;;;4967358;28;20250;-73
2024/01/27 02:55:09;;;;;;;14.03;3.80;;;22.70;99.90;;;;;;4959587;28;20200;-73
2024/01/27 02:57:36;;;;;;;9.13;2.57;;;22.70;99.90;;;;;;4957246;28;20187;-74
2024/01/27 03:00:05;;;;;;;9.87;3.53;;;22.90;99.90;;;;;;4964685;28;20190;-73
2024/01/27 03:02:32;;;;;;;9.70;2.87;;;23.00;99.90;;;;;;4964780;28;20180;-74
2024/01/27 03:05:00;;;;;;;10.43;2.67;;;23.30;99.90;;;;;;4957228;28;20176;-74
2024/01/27 03:07:27;;;;;;;9.63;2.60;;;23.20;99.90;;;;;;4972761;28;20548;-74
2024/01/27 03:09:55;;;;;;;9.63;2.13;;;23.20;99.90;;;;;;4967631;28;20183;-73
2024/01/27 03:12:22;;;;;;;9.53;2.57;;;23.10;99.90;;;;;;4962179;28;20658;-73
2024/01/27 03:14:50;;;;;;;9.87;2.60;;;23.10;99.90;;;;;;4947338;28;20668;-73
2024/01/27 03:17:18;;;;;;;10.00;2.83;;;22.90;99.90;;;;;;4974588;28;20183;-74
2024/01/27 03:19:45;;;;;;;11.70;2.70;;;22.90;99.90;;;;;;4965424;28;20202;-74
2024/01/27 03:22:12;;;;;;;10.60;3.07;;;22.80;99.90;;;;;;4972462;28;20560;-73
2024/01/27 03:24:40;;;;;;;15.23;3.00;;;22.80;99.90;;;;;;4964596;28;20219;-73
2024/01/27 03:27:07;;;;;;;12.03;3.00;;;23.20;99.90;;;;;;4974532;28;20222;-73
2024/01/27 03:29:34;;;;;;;12.80;2.90;;;23.40;99.90;;;;;;4973866;28;20724;-73
2024/01/27 03:32:01;;;;;;;8.33;2.30;;;23.50;99.90;;;;;;4974134;28;20175;-72
2024/01/27 03:34:29;;;;;;;14.07;2.90;;;23.50;99.90;;;;;;4974221;28;20179;-71
2024/01/27 03:36:56;;;;;;;9.13;2.53;;;23.50;99.90;;;;;;4973708;28;20850;-72
2024/01/27 03:39:23;;;;;;;12.80;3.60;;;23.60;99.90;;;;;;4974141;28;20294;-72
2024/01/27 03:41:51;;;;;;;12.83;3.13;;;23.50;99.90;;;;;;4974032;28;20191;-72
2024/01/27 03:44:18;;;;;;;16.37;3.03;;;23.40;99.90;;;;;;4969377;28;20185;-73
2024/01/27 03:46:45;;;;;;;8.80;3.10;;;23.40;99.90;;;;;;4974030;28;20207;-73
2024/01/27 03:49:13;;;;;;;14.97;3.10;;;23.60;99.90;;;;;;4974048;28;20186;-71
2024/01/27 03:51:40;;;;;;;8.37;2.40;;;23.80;99.90;;;;;;4973301;28;20179;-72
2024/01/27 03:54:07;;;;;;;12.93;3.00;;;24.10;99.90;;;;;;4973645;28;20219;-72
2024/01/27 03:56:34;;;;;;;11.43;3.20;;;24.20;99.90;;;;;;4973721;28;20215;-71
2024/01/27 03:59:03;;;;;;;15.17;3.17;;;24.30;99.90;;;;;;4973432;28;20183;-72
2024/01/27 04:01:30;;;;;;;12.13;2.73;;;24.60;99.90;;;;;;4965617;28;20187;-72
2024/01/27 04:03:58;;;;;;;19.40;3.57;;;24.90;99.90;;;;;;4954336;28;20188;-70
2024/01/27 04:06:25;;;;;;;10.93;2.90;;;25.20;99.90;;;;;;4952620;29;20230;-71
2024/01/27 04:08:52;;;;;;;13.33;3.37;;;25.40;99.90;;;;;;4954269;28;20176;-72
2024/01/27 04:11:21;;;;;;;13.23;3.10;;;25.70;99.90;;;;;;4954156;28;20472;-72
2024/01/27 04:13:52;;;;;;;12.50;3.00;;;26.00;99.90;;;;;;4953669;28;20206;-74
2024/01/27 04:16:20;;;;;;;19.07;4.10;;;26.30;99.90;;;;;;4952722;29;20188;-71
2024/01/27 04:18:47;;;;;;;15.07;2.83;;;26.80;99.90;;;;;;4956799;28;20210;-71
2024/01/27 04:21:15;;;;;;;15.37;3.50;;;27.10;99.90;;;;;;4963766;28;20225;-71
2024/01/27 04:23:42;;;;;;;14.27;3.03;;;26.50;99.90;;;;;;4962708;28;20204;-70
2024/01/27 04:26:10;;;;;;;15.90;3.90;;;26.00;99.90;;;;;;4964608;28;20175;-73
2024/01/27 04:32:39;;;;;;;17.53;4.13;;;25.40;99.90;;;;;;4973217;28;20250;-70
2024/01/27 04:35:10;;;;;;;17.73;3.73;;;25.00;99.90;;;;;;4973127;28;20195;-71
2024/01/27 04:37:38;;;;;;;17.57;3.30;;;24.80;99.90;;;;;;4972658;28;20199;-71
2024/01/27 04:40:06;;;;;;;23.47;3.70;;;24.70;99.90;;;;;;4973136;28;20183;-73
2024/01/27 04:42:39;;;;;;;15.73;3.30;;;24.70;99.90;;;;;;4973077;28;20266;-73
2024/01/27 04:45:08;;;;;;;16.70;3.13;;;24.70;99.90;;;;;;4972923;28;20201;-73
2024/01/27 04:47:35;;;;;;;16.73;3.57;;;24.60;99.90;;;;;;4972923;28;20535;-72
2024/01/27 04:50:03;;;;;;;13.47;3.50;;;24.70;99.90;;;;;;4972730;28;20185;-71
2024/01/27 04:52:30;;;;;;;14.83;4.20;;;24.60;99.90;;;;;;4972509;28;20238;-72
2024/01/27 04:54:58;;;;;;;15.83;3.30;;;24.50;99.90;;;;;;4973982;28;20183;-71
2024/01/27 04:57:25;;;;;;;13.40;3.23;;;24.20;99.90;;;;;;4974389;28;20262;-72
2024/01/27 04:59:53;;;;;;;19.57;4.07;;;24.10;99.90;;;;;;4974352;28;20656;-72
2024/01/27 05:02:20;;;;;;;18.33;4.33;;;23.90;99.90;;;;;;4972959;28;20638;-72
2024/01/27 05:04:47;;;;;;;13.97;3.33;;;24.00;99.90;;;;;;4950998;28;20617;-71
2024/01/27 05:07:14;;;;;;;21.40;3.60;;;24.00;99.90;;;;;;4971313;28;20744;-73
2024/01/27 05:09:42;;;;;;;14.40;3.33;;;23.80;99.90;;;;;;4972776;28;20635;-73
2024/01/27 05:12:09;;;;;;;16.80;4.27;;;23.80;99.90;;;;;;4972115;28;20171;-74
2024/01/27 05:14:36;;;;;;;16.33;3.23;;;23.80;99.90;;;;;;4972629;28;20179;-71
2024/01/27 05:17:04;;;;;;;12.90;3.20;;;23.80;99.90;;;;;;4972589;28;20185;-73
2024/01/27 05:19:31;;;;;;;14.20;2.60;;;23.80;99.90;;;;;;4972273;28;20712;-74
2024/01/27 05:21:58;;;;;;;12.30;2.77;;;23.60;99.90;;;;;;4972448;28;20176;-72
2024/01/27 05:24:26;;;;;;;14.67;3.03;;;23.50;99.90;;;;;;4972688;28;20171;-72
2024/01/27 05:26:53;;;;;;;10.67;2.37;;;23.50;99.90;;;;;;4972264;28;20171;-72
2024/01/27 05:29:20;;;;;;;13.20;2.87;;;23.50;99.90;;;;;;4972409;28;20186;-72
2024/01/27 05:31:48;;;;;;;14.83;2.63;;;23.50;99.90;;;;;;4972671;28;20182;-72
2024/01/27 05:34:15;;;;;;;13.33;2.67;;;23.40;99.90;;;;;;4971825;28;20222;-72
2024/01/27 05:36:43;;;;;;;9.50;2.37;;;23.50;99.90;;;;;;4972216;28;20243;-72
2024/01/27 05:39:10;;;;;;;7.50;2.07;;;23.60;99.90;;;;;;4975641;28;20179;-71
2024/01/27 05:41:38;;;;;;;13.27;2.33;;;23.70;99.90;;;;;;4975830;28;20671;-70
2024/01/27 05:44:05;;;;;;;13.97;2.53;;;23.90;99.90;;;;;;4976223;28;20617;-73
2024/01/27 05:46:33;;;;;;;8.67;2.60;;;23.90;99.90;;;;;;4976395;28;20191;-73
2024/01/27 05:49:03;;;;;;;11.30;2.67;;;24.10;99.90;;;;;;4975837;28;20199;-72
2024/01/27 05:51:31;;;;;;;10.23;2.60;;;24.10;99.90;;;;;;4976623;28;20641;-71
2024/01/27 05:53:58;;;;;;;13.50;2.87;;;24.20;99.90;;;;;;4977303;28;20614;-73
2024/01/27 05:56:25;;;;;;;11.60;3.27;;;24.20;99.90;;;;;;4977455;28;20267;-72
2024/01/27 05:58:53;;;;;;;17.30;3.07;;;24.30;99.90;;;;;;4977720;28;20168;-71
2024/01/27 06:01:20;;;;;;;10.40;3.43;;;24.30;99.90;;;;;;4977799;28;20258;-72
2024/01/27 06:03:48;;;;;;;15.30;2.80;;;24.40;99.90;;;;;;4977365;28;20194;-72
2024/01/27 06:06:15;;;;;;;14.40;3.63;;;24.50;99.90;;;;;;4977446;28;20183;-71
2024/01/27 06:08:43;;;;;;;15.87;3.10;;;24.40;99.90;;;;;;4977027;28;20171;-71
2024/01/27 06:11:10;;;;;;;19.40;3.97;;;24.40;99.90;;;;;;4977129;28;20175;-71
2024/01/27 06:13:39;;;;;;;13.00;2.87;;;24.30;99.90;;;;;;4976897;28;20211;-71
2024/01/27 06:16:10;;;;;;;10.47;3.17;;;24.20;99.90;;;;;;4977149;28;20223;-71
2024/01/27 06:18:38;;;;;;;11.97;2.87;;;24.10;99.90;;;;;;4977044;28;20641;-71
2024/01/27 06:21:06;;;;;;;13.23;3.17;;;24.20;99.90;;;;;;4977180;28;20187;-72
2024/01/27 06:23:34;;;;;;;19.43;3.67;;;24.10;99.90;;;;;;4976971;28;20222;-72
2024/01/27 06:26:09;;;;;;;16.57;3.20;;;24.20;99.90;;;;;;4976906;28;20645;-70
2024/01/27 06:28:37;;;;;;;17.43;3.57;;;24.20;99.90;;;;;;4976926;28;20535;-70
2024/01/27 06:31:05;;;;;;;21.03;3.43;;;24.20;99.90;;;;;;4976504;28;20227;-71
2024/01/27 06:33:33;;;;;;;15.37;2.97;;;24.10;99.90;;;;;;4976697;28;20211;-71
2024/01/27 06:36:01;;;;;;;22.47;3.87;;;24.20;99.90;;;;;;4976584;28;20289;-71
2024/01/27 06:38:28;;;;;;;14.03;3.17;;;24.00;99.90;;;;;;4976985;28;20266;-71
2024/01/27 06:40:56;;;;;;;20.33;3.17;;;24.00;99.90;;;;;;4976999;28;20534;-72
2024/01/27 06:43:23;;;;;;;14.07;3.27;;;24.00;99.90;;;;;;4976924;28;20175;-71
2024/01/27 06:45:51;;;;;;;18.33;3.53;;;24.00;99.90;;;;;;4976918;28;20626;-72
2024/01/27 06:48:18;;;;;;;16.87;3.10;;;24.00;99.90;;;;;;4979609;28;20194;-73
2024/01/27 06:50:45;;;;;;;13.67;3.47;;;24.00;99.90;;;;;;4976486;28;20266;-71
2024/01/27 06:53:13;;;;;;;17.37;3.60;;;23.90;99.90;;;;;;4976506;28;20687;-71
2024/01/27 06:55:40;;;;;;;27.57;4.10;;;23.90;99.90;;;;;;4976658;28;20172;-71
2024/01/27 06:58:07;;;;;;;17.27;3.60;;;24.00;99.90;;;;;;4976544;28;20709;-73
2024/01/27 07:00:34;;;;;;;14.27;3.03;;;23.90;99.90;;;;;;4971438;28;20247;-71
2024/01/27 07:03:02;;;;;;;17.43;3.50;;;23.90;99.90;;;;;;4957205;28;20292;-70
2024/01/27 07:05:30;;;;;;;24.90;4.00;;;23.90;99.90;;;;;;4955909;29;20212;-71
2024/01/27 07:07:57;;;;;;;10.20;3.27;;;23.80;99.90;;;;;;4955972;29;20223;-71
2024/01/27 07:10:25;;;;;;;13.80;3.63;;;23.80;99.90;;;;;;4956956;28;20287;-71
2024/01/27 07:12:52;;;;;;;17.37;3.30;;;23.80;99.90;;;;;;4957128;28;20203;-71
2024/01/27 07:15:21;;;;;;;13.03;3.43;;;23.80;99.90;;;;;;4957027;28;20180;-71
2024/01/27 07:17:48;;;;;;;18.83;4.10;;;23.90;99.90;;;;;;4956946;28;20176;-72
2024/01/27 07:20:16;;;;;;;22.43;4.20;;;23.90;99.90;;;;;;4956738;28;20183;-70
2024/01/27 07:22:43;;;;;;;18.50;3.07;;;23.90;99.90;;;;;;4956903;28;20199;-71
2024/01/27 07:25:10;;;;;;;24.37;3.70;;;24.00;99.90;;;;;;4956781;28;20267;-71
2024/01/27 07:27:38;;;;;;;15.30;3.33;;;24.00;99.90;;;;;;4956841;28;20187;-70
2024/01/27 07:30:08;;;;;;;18.80;3.60;;;24.00;99.90;;;;;;4956700;28;20180;-70
2024/01/27 07:32:35;;;;;;;17.87;3.47;;;23.90;99.90;;;;;;4956629;28;20577;-71
2024/01/27 07:35:05;;;;;;;14.10;3.20;;;23.90;99.90;;;;;;4956705;28;20579;-70
2024/01/27 07:37:32;;;;;;;16.50;3.37;;;23.90;99.90;;;;;;4956366;28;20227;-71
2024/01/27 07:40:00;;;;;;;15.97;3.93;;;23.80;99.90;;;;;;4956734;28;20195;-71
2024/01/27 07:42:27;;;;;;;19.77;4.17;;;23.80;99.90;;;;;;4956527;28;20172;-70
2024/01/27 07:44:54;;;;;;;21.87;3.87;;;23.80;99.90;;;;;;4956468;28;20184;-71
2024/01/27 07:47:22;;;;;;;13.63;3.53;;;23.70;99.90;;;;;;4956298;28;20176;-71
2024/01/27 07:49:49;;;;;;;20.30;3.40;;;23.80;99.90;;;;;;4956315;28;20223;-71
2024/01/27 07:52:16;;;;;;;19.73;4.20;;;23.80;99.90;;;;;;4956237;28;20172;-71
2024/01/27 07:54:43;;;;;;;22.20;4.40;;;23.60;99.90;;;;;;4956253;28;20180;-71
2024/01/27 07:57:12;;;;;;;17.23;4.33;;;23.70;99.90;;;;;;4956003;28;20550;-70
2024/01/27 07:59:39;;;;;;;19.50;3.57;;;23.60;99.90;;;;;;4954873;29;20180;-71
2024/01/27 08:02:07;;;;;;;19.87;3.80;;;23.60;99.90;;;;;;4955614;28;20630;-70
2024/01/27 08:04:34;;;;;;;23.43;4.73;;;23.60;99.90;;;;;;4956078;28;20572;-72
2024/01/27 08:07:06;;;;;;;15.60;3.73;;;23.60;99.90;;;;;;4956139;28;20180;-71
2024/01/27 08:09:33;;;;;;;16.90;4.10;;;23.50;99.90;;;;;;4955733;28;20184;-71
2024/01/27 08:12:01;;;;;;;18.30;3.60;;;23.60;99.90;;;;;;4955721;28;20187;-71
2024/01/27 08:14:33;;;;;;;16.43;3.50;;;23.60;99.90;;;;;;4955502;28;20279;-71
2024/01/27 08:17:01;;;;;;;17.97;4.07;;;23.60;99.90;;;;;;4954602;29;20550;-70
2024/01/27 08:19:28;;;;;;;15.93;3.80;;;23.60;99.90;;;;;;4955891;28;20176;-71
2024/01/27 08:21:55;;;;;;;20.27;3.83;;;23.60;99.90;;;;;;4955857;28;20291;-71
2024/01/27 08:24:24;;;;;;;18.00;4.50;;;23.50;99.90;;;;;;4955763;28;20653;-71
2024/01/27 08:26:51;;;;;;;16.47;4.70;;;23.60;99.90;;;;;;4955642;28;20195;-72
2024/01/27 08:29:19;;;;;;;24.30;5.70;;;23.60;99.90;;;;;;4955507;28;20172;-72
2024/01/27 08:31:46;;;;;;;19.00;4.63;;;23.60;99.90;;;;;;4955733;28;20231;-73
2024/01/27 08:34:14;;;;;;;14.90;4.83;;;23.70;99.90;;;;;;4955369;28;20298;-73
2024/01/27 08:36:41;;;;;;;14.87;3.90;;;23.70;99.90;;;;;;4955506;28;20243;-73
2024/01/27 08:39:09;;;;;;;22.30;3.90;;;23.70;99.90;;;;;;4955454;28;20239;-74
2024/01/27 08:41:36;;;;;;;20.30;3.83;;;23.70;99.90;;;;;;4955355;28;20697;-72
2024/01/27 08:44:03;;;;;;;20.33;4.10;;;23.70;99.90;;;;;;4936956;28;20408;-72
2024/01/27 08:46:31;;;;;;;14.53;4.47;;;23.60;99.90;;;;;;4968734;28;20291;-74
2024/01/27 08:48:58;;;;;;;17.20;4.60;;;23.60;99.90;;;;;;4953746;29;20172;-73
2024/01/27 08:51:26;;;;;;;16.37;4.03;;;23.60;99.90;;;;;;4953148;29;21057;-72
2024/01/27 08:53:53;;;;;;;17.60;4.20;;;23.70;99.90;;;;;;4963394;28;20218;-72
2024/01/27 08:56:20;;;;;;;21.53;3.23;;;23.70;99.90;;;;;;4971811;28;20172;-71
2024/01/27 08:58:48;;;;;;;13.90;3.77;;;23.70;99.90;;;;;;4960993;28;20187;-72
2024/01/27 09:01:17;;;;;;;18.83;3.70;;;23.70;99.90;;;;;;4954661;28;20270;-72
2024/01/27 09:03:44;;;;;;;22.47;4.30;;;23.60;99.90;;;;;;4953449;28;20583;-74
2024/01/27 09:06:11;;;;;;;21.63;3.63;;;23.60;99.90;;;;;;4953152;28;20180;-73
2024/01/27 09:08:39;;;;;;;18.60;4.03;;;23.50;99.90;;;;;;4961484;28;20313;-74
2024/01/27 09:11:06;;;;;;;15.07;4.00;;;23.50;99.90;;;;;;4972370;28;20187;-72
2024/01/27 09:13:34;;;;;;;22.03;4.90;;;23.40;99.90;;;;;;4971131;28;20258;-73
2024/01/27 09:16:01;;;;;;;16.37;3.80;;;23.50;99.90;;;;;;4972678;28;20183;-72
2024/01/27 09:18:28;;;;;;;21.47;4.23;;;23.50;99.90;;;;;;4965619;28;20192;-71
2024/01/27 09:20:56;;;;;;;16.57;3.40;;;23.50;99.90;;;;;;4953041;28;20866;-74
2024/01/27 09:23:23;;;;;;;17.10;4.43;;;23.40;99.90;;;;;;4953257;28;20283;-73
2024/01/27 09:25:50;;;;;;;13.93;3.30;;;23.50;99.90;;;;;;4953281;28;20529;-74
2024/01/27 09:28:18;;;;;;;21.80;4.70;;;23.50;99.90;;;;;;4953056;28;20188;-73
2024/01/27 09:30:45;;;;;;;23.60;4.27;;;23.60;99.90;;;;;;4952437;28;20200;-73
2024/01/27 09:33:13;;;;;;;20.33;3.80;;;23.50;99.90;;;;;;4972489;28;20219;-74
2024/01/27 09:35:40;;;;;;;23.97;4.93;;;23.50;99.90;;;;;;4972078;28;20219;-74
2024/01/27 09:38:12;;;;;;;18.80;4.30;;;23.30;99.90;;;;;;4971038;28;20193;-74
2024/01/27 09:40:39;;;;;;;15.43;3.67;;;23.20;99.90;;;;;;4972600;28;20183;-72
2024/01/27 09:43:11;;;;;;;11.90;3.40;;;23.10;99.90;;;;;;4972141;28;20193;-72
2024/01/27 09:45:38;;;;;;;23.20;3.90;;;23.10;99.90;;;;;;4971322;28;20187;-72
2024/01/27 09:48:08;;;;;;;15.13;4.47;;;22.90;99.90;;;;;;4972081;28;20195;-73
2024/01/27 09:50:35;;;;;;;14.47;3.63;;;22.80;99.90;;;;;;4971794;28;20188;-74
2024/01/27 09:53:07;;;;;;;25.30;4.73;;;22.90;99.90;;;;;;4972387;28;20223;-74
2024/01/27 09:55:35;;;;;;;18.40;3.17;;;23.00;99.90;;;;;;4972207;28;20199;-73
2024/01/27 09:58:02;;;;;;;18.37;3.37;;;23.00;99.90;;;;;;4957239;28;20215;-75
2024/01/27 10:00:30;;;;;;;19.33;3.80;;;23.00;99.90;;;;;;4953801;28;20317;-74
2024/01/27 10:02:58;;;;;;;12.20;2.83;;;23.00;99.90;;;;;;4954348;28;20266;-74
2024/01/27 10:05:27;;;;;;;17.33;3.40;;;22.90;99.90;;;;;;4954468;28;20267;-74
2024/01/27 10:07:54;;;;;;;16.83;3.60;;;22.90;99.90;;;;;;4955041;28;20251;-73
2024/01/27 10:10:21;;;;;;;15.13;3.07;;;23.00;99.90;;;;;;4954411;28;20173;-74
2024/01/27 10:12:53;;;;;;;14.87;3.13;;;23.00;99.90;;;;;;4954441;28;20666;-73
2024/01/27 10:15:22;;;;;;;18.13;3.63;;;23.10;99.90;;;;;;4954916;28;20191;-73
2024/01/27 10:17:49;;;;;;;17.27;3.70;;;23.10;99.90;;;;;;4954426;28;20195;-73
2024/01/27 10:20:18;;;;;;;12.77;2.80;;;23.10;99.90;;;;;;4953136;28;20681;-75
2024/01/27 10:22:46;;;;;;;16.97;3.43;;;23.10;99.90;;;;;;4954405;28;20180;-74
2024/01/27 10:25:13;;;;;;;23.10;3.87;;;23.10;99.90;;;;;;4957218;28;20180;-74
2024/01/27 10:27:41;;;;;;;15.57;3.50;;;23.20;99.90;;;;;;4958030;28;20200;-73
2024/01/27 10:30:17;;;;;;;19.07;3.77;;;23.30;99.90;;;;;;4956680;28;20203;-74
2024/01/27 10:32:55;;;;;;;24.10;3.60;;;23.30;99.90;;;;;;4957776;28;20223;-73
2024/01/27 10:35:22;;;;;;;15.60;2.40;;;23.40;99.90;;;;;;4957672;28;20184;-73
2024/01/27 10:37:54;;;;;;;17.80;3.27;;;23.40;99.90;;;;;;4957713;28;20274;-73
2024/01/27 10:40:26;;;;;;;17.90;3.43;;;23.30;99.90;;;;;;4964488;28;20183;-72
2024/01/27 10:43:04;;;;;;;17.03;3.07;;;23.20;99.90;;;;;;4968906;28;20528;-74
2024/01/27 10:45:36;;;;;;;12.67;3.40;;;23.20;99.90;;;;;;4976993;28;20183;-73
2024/01/27 10:48:05;;;;;;;13.20;3.13;;;23.30;99.90;;;;;;4976687;28;20176;-74
2024/01/27 10:50:37;;;;;;;14.17;3.43;;;23.30;99.90;;;;;;4976799;28;20532;-74
2024/01/27 10:53:09;;;;;;;23.13;4.10;;;23.20;99.90;;;;;;4976629;28;20199;-73
2024/01/27 10:55:38;;;;;;;15.50;3.23;;;23.30;99.90;;;;;;4976680;28;20203;-74
2024/01/27 10:58:06;;;;;;;20.63;4.40;;;23.30;99.90;;;;;;4976563;28;20229;-74
2024/01/27 11:00:34;;;;;;;16.73;3.17;;;23.30;99.90;;;;;;4976696;28;20589;-73
2024/01/27 11:03:04;;;;;;;20.70;4.13;;;23.30;99.90;;;;;;4976592;28;20191;-73
2024/01/27 11:05:35;;;;;;;16.07;3.87;;;23.30;99.90;;;;;;4976499;28;20178;-73
2024/01/27 11:08:06;;;;;;;15.00;3.57;;;23.30;99.90;;;;;;4976717;28;20321;-73
2024/01/27 11:10:36;;;;;;;17.20;3.73;;;23.40;99.90;;;;;;4976514;28;20175;-74
2024/01/27 11:13:06;;;;;;;19.63;3.77;;;23.30;99.90;;;;;;4976163;28;20211;-74
2024/01/27 11:15:34;;;;;;;18.70;3.30;;;23.30;99.90;;;;;;4976382;28;20637;-73
2024/01/27 11:18:04;;;;;;;17.27;3.60;;;23.30;99.90;;;;;;4976408;28;20590;-74
2024/01/27 11:20:36;;;;;;;17.87;4.10;;;23.40;99.90;;;;;;4976399;28;20179;-73
2024/01/27 11:23:11;;;;;;;16.87;3.27;;;23.40;99.90;;;;;;4976267;28;20525;-74
2024/01/27 11:25:38;;;;;;;18.87;3.70;;;23.30;99.90;;;;;;4976089;28;20175;-72
2024/01/27 11:28:16;;;;;;;20.27;4.00;;;23.30;99.90;;;;;;4972829;28;20192;-72
2024/01/27 11:30:50;;;;;;;15.93;3.23;;;23.20;99.90;;;;;;4965458;28;20190;-73
2024/01/27 11:33:18;;;;;;;16.93;3.90;;;23.20;99.90;;;;;;4956781;28;20215;-73
2024/01/27 11:35:45;;;;;;;21.67;3.77;;;23.10;99.90;;;;;;4955676;28;20323;-74
2024/01/27 11:38:14;;;;;;;16.43;3.57;;;23.00;99.90;;;;;;4956946;29;20180;-74
2024/01/27 11:40:49;;;;;;;15.80;3.47;;;23.00;99.90;;;;;;4956455;29;20572;-73
2024/01/27 11:43:16;;;;;;;19.10;4.03;;;23.00;99.90;;;;;;4956535;29;20657;-73
2024/01/27 11:46:01;;;;;;;20.37;3.57;;;22.80;99.90;;;;;;4955546;28;20208;-73
2024/01/27 11:48:29;;;;;;;18.17;4.33;;;22.90;99.90;;;;;;4956511;29;20539;-72
2024/01/27 11:51:06;;;;;;;13.03;4.00;;;22.70;99.90;;;;;;4956430;29;20254;-73
2024/01/27 11:53:33;;;;;;;18.97;4.67;;;22.70;99.90;;;;;;4956161;29;20222;-74
2024/01/27 11:56:01;;;;;;;14.77;3.43;;;22.60;99.90;;;;;;4956245;29;20271;-72
2024/01/27 11:58:30;;;;;;;19.13;4.90;;;22.50;99.90;;;;;;4954906;29;20650;-73
2024/01/27 12:01:00;;;;;;;21.40;3.93;;;22.50;99.90;;;;;;4954763;29;20536;-73
2024/01/27 12:03:28;;;;;;;15.43;4.30;;;22.40;99.90;;;;;;4956099;29;20547;-74
2024/01/27 12:05:56;;;;;;;15.23;3.80;;;22.30;99.90;;;;;;4956098;29;20642;-74
2024/01/27 12:08:23;;;;;;;18.40;3.80;;;22.30;99.90;;;;;;4955559;28;20219;-72
2024/01/27 12:10:52;;;;;;;14.23;3.37;;;22.20;99.90;;;;;;4965078;28;20290;-72
2024/01/27 12:13:19;;;;;;;13.00;3.33;;;22.30;99.90;;;;;;4955930;28;20219;-72
2024/01/27 12:15:47;;;;;;;16.27;3.63;;;22.40;99.90;;;;;;4955990;28;20705;-72
2024/01/27 12:18:15;;;;;;;13.87;3.40;;;22.30;99.90;;;;;;4956038;28;20184;-72
2024/01/27 12:20:42;;;;;;;11.30;2.87;;;22.20;99.90;;;;;;4955865;28;20187;-72
2024/01/27 12:23:10;;;;;;;13.40;3.63;;;22.10;99.90;;;;;;4955989;28;20646;-70
2024/01/27 12:25:37;;;;;;;16.70;3.23;;;22.10;99.90;;;;;;4955798;28;20249;-73
2024/01/27 12:28:07;;;;;;;16.60;4.50;;;22.10;99.90;;;;;;4955709;28;20645;-73
2024/01/27 12:30:35;;;;;;;19.50;3.50;;;22.20;99.90;;;;;;4955650;28;20234;-73
2024/01/27 12:33:09;;;;;;;18.53;3.83;;;22.20;99.90;;;;;;4954144;28;20725;-70
2024/01/27 12:35:36;;;;;;;13.83;3.00;;;22.20;99.90;;;;;;4955796;28;20226;-72
2024/01/27 12:38:05;;;;;;;14.90;3.50;;;22.10;99.90;;;;;;4955490;28;20187;-70
2024/01/27 12:40:33;;;;;;;18.50;3.33;;;22.00;99.90;;;;;;4955533;28;20543;-72
2024/01/27 12:43:00;;;;;;;12.03;3.30;;;22.00;99.90;;;;;;4955546;28;20506;-72
2024/01/27 12:45:28;;;;;;;11.30;3.17;;;21.90;99.90;;;;;;4955633;28;20238;-72